Time;durP1;ratioP1;P1;durP2;ratioP2;P2;SDS_P1;SDS_P2;PMS_P1;PMS_P2;Temp;Humidity;BMP_temperature;BMP_pressure;BME280_temperature;BME280_humidity;BME280_pressure;Samples;Min_cycle;Max_cycle;Signal;HPM_P1;HPM_P2
2022/07/12 00:01:04;;;;;;;10.05;7.10;;;11.00;99.90;;;;;;4955109;29;20118;-75
2022/07/12 00:03:31;;;;;;;8.10;6.50;;;11.10;99.90;;;;;;4955088;29;20063;-76
2022/07/12 00:05:58;;;;;;;9.00;7.03;;;11.40;99.90;;;;;;4954896;29;20146;-75
2022/07/12 00:08:26;;;;;;;8.48;7.03;;;11.60;99.90;;;;;;4955129;29;20039;-75
2022/07/12 00:10:53;;;;;;;8.00;6.65;;;11.70;99.90;;;;;;4954908;29;20396;-75
2022/07/12 00:13:21;;;;;;;8.40;6.30;;;11.80;99.90;;;;;;4954919;29;20020;-76
2022/07/12 00:15:49;;;;;;;7.63;6.22;;;11.90;99.90;;;;;;4937659;29;20054;-75
2022/07/12 00:18:16;;;;;;;6.18;5.25;;;12.10;99.90;;;;;;4937599;29;20053;-76
2022/07/12 00:20:43;;;;;;;6.03;5.43;;;12.20;99.90;;;;;;4937906;29;20555;-75
2022/07/12 00:23:10;;;;;;;7.72;5.43;;;12.20;99.90;;;;;;4954898;29;20065;-75
2022/07/12 00:25:38;;;;;;;7.75;5.43;;;12.20;99.90;;;;;;4954852;29;20027;-76
2022/07/12 00:28:06;;;;;;;8.52;5.15;;;12.30;99.90;;;;;;4937507;29;20030;-76
2022/07/12 00:30:34;;;;;;;6.30;5.07;;;12.20;99.90;;;;;;4937502;29;20446;-76
2022/07/12 00:33:01;;;;;;;8.27;4.93;;;12.20;99.90;;;;;;4955122;29;20111;-76
2022/07/12 00:35:28;;;;;;;7.88;5.13;;;12.30;99.90;;;;;;4937452;29;20028;-75
2022/07/12 00:37:56;;;;;;;7.28;5.13;;;12.30;99.90;;;;;;4954811;29;20023;-75
2022/07/12 00:40:23;;;;;;;6.13;5.13;;;12.40;99.90;;;;;;4939329;29;20031;-75
2022/07/12 00:42:51;;;;;;;5.18;4.43;;;12.30;99.90;;;;;;4958630;29;20119;-76
2022/07/12 00:45:18;;;;;;;5.55;4.22;;;12.30;99.90;;;;;;4958780;29;20090;-75
2022/07/12 00:47:47;;;;;;;6.78;4.72;;;12.40;99.90;;;;;;4958670;29;20058;-75
2022/07/12 00:50:18;;;;;;;6.82;4.53;;;12.40;99.90;;;;;;4958440;29;20034;-75
2022/07/12 00:52:47;;;;;;;7.35;4.35;;;12.50;99.90;;;;;;4958630;29;20047;-75
2022/07/12 00:55:17;;;;;;;8.45;5.13;;;12.50;99.90;;;;;;4958541;29;20043;-75
2022/07/12 00:57:45;;;;;;;6.88;5.32;;;12.60;99.90;;;;;;4941334;29;20369;-75
2022/07/12 01:00:18;;;;;;;7.75;4.95;;;12.70;99.90;;;;;;4958377;29;20492;-75
2022/07/12 01:02:46;;;;;;;6.85;4.82;;;12.70;99.90;;;;;;4958769;29;20028;-75
2022/07/12 01:05:14;;;;;;;8.40;5.07;;;12.80;99.90;;;;;;4958004;29;20035;-75
2022/07/12 01:07:43;;;;;;;6.25;4.20;;;12.80;99.90;;;;;;4958456;29;20031;-75
2022/07/12 01:10:10;;;;;;;9.82;5.13;;;12.80;99.90;;;;;;4958173;29;20475;-75
2022/07/12 01:12:38;;;;;;;7.45;5.50;;;12.90;99.90;;;;;;4958202;29;20058;-75
2022/07/12 01:15:09;;;;;;;7.20;5.00;;;13.00;99.90;;;;;;4958125;29;20106;-75
2022/07/12 01:17:38;;;;;;;8.93;5.30;;;13.10;99.90;;;;;;4958009;29;20027;-75
2022/07/12 01:20:07;;;;;;;9.73;5.55;;;13.10;99.90;;;;;;4957900;29;20019;-75
2022/07/12 01:22:36;;;;;;;7.32;5.28;;;13.30;99.90;;;;;;4957871;29;20070;-75
2022/07/12 01:25:06;;;;;;;7.55;5.13;;;13.30;99.90;;;;;;4958068;29;20046;-76
2022/07/12 01:27:34;;;;;;;9.73;4.97;;;13.40;99.90;;;;;;4940526;29;20058;-76
2022/07/12 01:30:05;;;;;;;7.22;5.85;;;13.50;99.90;;;;;;4957713;29;20500;-76
2022/07/12 01:32:31;;;;;;;;;;;13.60;99.90;;;;;;4940715;29;20384;-75
2022/07/12 01:35:01;;;;;;;6.60;5.03;;;13.60;99.90;;;;;;4940328;29;19906;-76
2022/07/12 01:37:42;;;;;;;7.88;5.18;;;13.70;99.90;;;;;;4957430;29;20027;-76
2022/07/12 01:40:12;;;;;;;7.45;4.50;;;13.70;99.90;;;;;;4939850;29;20035;-76
2022/07/12 01:42:40;;;;;;;7.85;5.00;;;13.90;99.90;;;;;;4957322;29;20391;-76
2022/07/12 01:45:08;;;;;;;6.15;4.35;;;14.00;99.90;;;;;;4957373;29;20027;-76
2022/07/12 01:47:36;;;;;;;8.93;5.38;;;14.10;99.90;;;;;;4940031;29;20028;-76
2022/07/12 01:50:09;;;;;;;7.07;5.18;;;14.10;99.90;;;;;;4939994;29;20126;-75
2022/07/12 01:52:39;;;;;;;7.68;5.97;;;14.10;99.90;;;;;;4956055;29;20384;-76
2022/07/12 01:55:07;;;;;;;8.45;5.20;;;14.20;99.90;;;;;;4940053;29;20081;-77
2022/07/12 01:57:35;;;;;;;8.48;4.85;;;14.40;99.90;;;;;;4957208;29;20480;-75
2022/07/12 02:00:05;;;;;;;8.25;5.78;;;14.40;99.90;;;;;;4957252;29;20051;-75
2022/07/12 02:02:33;;;;;;;9.13;5.07;;;14.50;99.90;;;;;;4957161;29;20027;-75
2022/07/12 02:05:01;;;;;;;7.03;4.10;;;14.50;99.90;;;;;;4956911;29;20484;-75
2022/07/12 02:07:28;;;;;;;6.50;3.83;;;14.40;99.90;;;;;;4957075;29;20074;-75
2022/07/12 02:09:56;;;;;;;5.88;4.22;;;14.50;99.90;;;;;;4939848;29;20436;-75
2022/07/12 02:12:24;;;;;;;8.10;4.75;;;14.60;99.90;;;;;;4939780;29;20070;-76
2022/07/12 02:14:51;;;;;;;6.57;4.82;;;14.70;99.90;;;;;;4957080;29;20026;-76
2022/07/12 02:17:19;;;;;;;5.55;3.33;;;14.70;99.90;;;;;;4956967;29;20023;-76
2022/07/12 02:19:46;;;;;;;7.63;4.65;;;14.80;99.90;;;;;;4957000;29;20129;-76
2022/07/12 02:22:14;;;;;;;7.85;4.50;;;14.90;99.90;;;;;;4956732;29;20037;-76
2022/07/12 02:24:41;;;;;;;6.07;3.75;;;15.00;99.90;;;;;;4939590;29;20480;-76
2022/07/12 02:27:08;;;;;;;5.50;2.67;;;15.10;99.90;;;;;;4956829;29;20077;-76
2022/07/12 02:29:36;;;;;;;6.85;3.20;;;15.20;99.90;;;;;;4939517;29;20027;-75
2022/07/12 02:32:03;;;;;;;8.43;4.60;;;15.30;99.90;;;;;;4956775;29;20023;-77
2022/07/12 02:34:31;;;;;;;6.18;4.40;;;15.40;99.90;;;;;;4939293;29;20027;-76
2022/07/12 02:36:58;;;;;;;7.13;4.22;;;15.60;99.90;;;;;;4956638;29;20027;-75
2022/07/12 02:39:26;;;;;;;6.72;3.13;;;15.70;99.90;;;;;;4956676;29;20046;-76
2022/07/12 02:41:53;;;;;;;7.57;4.50;;;15.70;99.90;;;;;;4956610;29;20099;-76
2022/07/12 02:44:20;;;;;;;6.18;3.58;;;15.90;99.90;;;;;;4956442;29;20383;-76
2022/07/12 02:46:48;;;;;;;6.07;3.75;;;15.90;99.90;;;;;;4939142;29;20388;-76
2022/07/12 02:49:15;;;;;;;7.47;3.35;;;16.10;99.90;;;;;;4939004;29;20059;-76
2022/07/12 02:51:43;;;;;;;6.95;3.65;;;16.10;99.90;;;;;;4939420;29;20023;-76
2022/07/12 02:54:10;;;;;;;5.55;3.88;;;16.20;99.90;;;;;;4956312;29;20483;-76
2022/07/12 02:56:37;;;;;;;5.63;2.97;;;16.20;99.90;;;;;;4956270;29;20051;-76
2022/07/12 02:59:04;;;;;;;3.92;2.30;;;16.40;99.90;;;;;;4956151;29;20035;-76
2022/07/12 03:01:32;;;;;;;5.05;2.80;;;16.30;99.90;;;;;;4956239;29;20497;-76
2022/07/12 03:03:59;;;;;;;3.60;2.90;;;16.30;99.90;;;;;;4955712;28;20027;-75
2022/07/12 03:06:26;;;;;;;5.50;2.88;;;16.20;99.90;;;;;;4955836;29;20058;-76
2022/07/12 03:08:54;;;;;;;3.83;2.03;;;16.10;99.90;;;;;;4956322;29;20118;-76
2022/07/12 03:11:21;;;;;;;5.10;2.20;;;16.30;99.90;;;;;;4955927;29;20027;-76
2022/07/12 03:13:48;;;;;;;4.88;2.00;;;16.20;99.90;;;;;;4955973;29;20449;-76
2022/07/12 03:16:16;;;;;;;3.63;2.00;;;16.40;99.90;;;;;;4955943;29;20078;-76
2022/07/12 03:18:43;;;;;;;4.03;2.40;;;16.50;99.90;;;;;;4955909;29;20050;-76
2022/07/12 03:21:11;;;;;;;3.33;2.22;;;16.60;99.90;;;;;;4955886;29;20019;-76
2022/07/12 03:23:39;;;;;;;3.85;2.15;;;16.40;99.90;;;;;;4938385;29;20031;-75
2022/07/12 03:26:08;;;;;;;2.63;1.38;;;16.70;99.90;;;;;;4955801;29;20027;-75
2022/07/12 03:28:35;;;;;;;3.40;1.98;;;16.90;99.90;;;;;;4955669;29;20498;-75
2022/07/12 03:31:02;;;;;;;2.45;1.45;;;17.00;99.90;;;;;;4955676;29;20023;-75
2022/07/12 03:33:30;;;;;;;3.22;1.55;;;17.10;99.90;;;;;;4955535;29;20016;-75
2022/07/12 03:35:57;;;;;;;3.60;1.85;;;17.20;99.90;;;;;;4955571;29;20392;-75
2022/07/12 03:38:24;;;;;;;3.25;1.10;;;17.40;99.90;;;;;;4938334;29;20031;-75
2022/07/12 03:40:52;;;;;;;4.38;1.75;;;17.40;99.90;;;;;;4938201;29;20371;-75
2022/07/12 03:43:19;;;;;;;2.50;1.77;;;17.50;99.90;;;;;;4955316;29;20019;-75
2022/07/12 03:45:46;;;;;;;4.50;2.20;;;17.60;99.90;;;;;;4955396;29;20495;-75
2022/07/12 03:48:14;;;;;;;3.72;2.10;;;17.40;99.90;;;;;;4955645;29;20059;-76
2022/07/12 03:50:41;;;;;;;3.15;1.70;;;17.20;99.90;;;;;;4955302;29;20074;-76
2022/07/12 03:53:08;;;;;;;2.83;1.55;;;16.90;99.90;;;;;;4955313;29;20082;-76
2022/07/12 03:55:36;;;;;;;2.85;1.50;;;16.50;99.90;;;;;;4937926;29;20392;-76
2022/07/12 03:58:03;;;;;;;2.20;1.00;;;16.60;99.90;;;;;;4937924;29;20020;-76
2022/07/12 04:00:30;;;;;;;2.35;1.35;;;16.70;99.90;;;;;;4955036;29;20506;-75
2022/07/12 04:02:58;;;;;;;3.45;1.20;;;16.80;99.90;;;;;;4956071;29;20489;-75
2022/07/12 04:05:26;;;;;;;2.47;1.38;;;17.00;99.90;;;;;;4954850;29;20047;-75
2022/07/12 04:07:54;;;;;;;3.72;1.10;;;17.00;99.90;;;;;;4955104;29;20027;-74
2022/07/12 04:10:22;;;;;;;2.95;1.55;;;17.10;99.90;;;;;;4937566;29;20027;-75
2022/07/12 04:12:49;;;;;;;1.77;1.00;;;17.00;99.90;;;;;;4954901;29;20114;-75
2022/07/12 04:15:16;;;;;;;3.08;1.30;;;17.00;99.90;;;;;;4954149;28;20049;-76
2022/07/12 04:17:44;;;;;;;2.55;1.20;;;17.10;99.90;;;;;;4954966;29;20031;-75
2022/07/12 04:20:12;;;;;;;2.40;1.10;;;17.10;99.90;;;;;;4954839;29;20030;-75
2022/07/12 04:22:39;;;;;;;3.53;1.17;;;16.90;99.90;;;;;;4955435;29;20034;-75
2022/07/12 04:25:08;;;;;;;2.25;1.25;;;16.90;99.90;;;;;;4937506;29;20396;-75
2022/07/12 04:27:36;;;;;;;4.05;1.67;;;16.80;99.90;;;;;;4954728;29;20105;-75
2022/07/12 04:30:04;;;;;;;3.47;1.50;;;16.70;99.90;;;;;;4954748;29;20106;-75
2022/07/12 04:32:32;;;;;;;0.95;0.40;;;16.70;99.90;;;;;;4955015;29;20070;-75
2022/07/12 04:34:59;;;;;;;3.08;0.90;;;16.70;99.90;;;;;;4937488;29;20110;-75
2022/07/12 04:37:27;;;;;;;3.47;1.20;;;16.80;99.90;;;;;;4954625;29;20066;-74
2022/07/12 04:39:54;;;;;;;2.10;0.90;;;16.90;99.90;;;;;;4937423;29;20027;-75
2022/07/12 04:42:21;;;;;;;1.60;0.60;;;16.80;99.90;;;;;;4954684;29;20062;-75
2022/07/12 04:44:48;;;;;;;1.20;0.60;;;16.60;99.90;;;;;;4954699;29;20027;-75
2022/07/12 04:47:16;;;;;;;1.17;0.70;;;16.50;99.90;;;;;;4937094;29;20043;-74
2022/07/12 04:49:43;;;;;;;1.25;0.70;;;16.40;99.90;;;;;;4954604;29;20078;-74
2022/07/12 04:52:10;;;;;;;2.60;1.13;;;16.30;99.90;;;;;;4954502;29;20023;-74
2022/07/12 04:54:38;;;;;;;1.55;0.82;;;16.10;99.90;;;;;;4954579;29;20457;-75
2022/07/12 04:57:05;;;;;;;3.28;1.00;;;15.90;99.90;;;;;;4954513;29;20019;-74
2022/07/12 04:59:33;;;;;;;1.85;1.00;;;15.90;99.90;;;;;;4937258;29;20037;-74
2022/07/12 05:02:01;;;;;;;2.03;0.88;;;15.90;99.90;;;;;;4954349;29;20433;-74
2022/07/12 05:04:31;;;;;;;2.38;0.80;;;16.00;99.90;;;;;;4954422;29;20019;-74
2022/07/12 05:06:59;;;;;;;2.30;1.30;;;16.10;99.90;;;;;;4954291;29;20139;-74
2022/07/12 05:09:26;;;;;;;3.28;1.58;;;16.10;99.90;;;;;;4954340;29;20452;-74
2022/07/12 05:11:53;;;;;;;2.10;1.20;;;16.10;99.90;;;;;;4954398;29;20077;-75
2022/07/12 05:14:21;;;;;;;2.05;0.82;;;16.00;99.90;;;;;;4954348;29;20019;-71
2022/07/12 05:16:48;;;;;;;2.38;0.88;;;16.00;99.90;;;;;;4954230;29;20523;-71
2022/07/12 05:19:15;;;;;;;2.00;0.90;;;15.90;99.90;;;;;;4954308;29;20102;-71
2022/07/12 05:21:43;;;;;;;3.28;1.33;;;15.80;99.90;;;;;;4936701;29;20027;-71
2022/07/12 05:24:11;;;;;;;2.33;1.10;;;15.80;99.90;;;;;;4954183;29;20473;-71
2022/07/12 05:26:38;;;;;;;2.28;1.10;;;15.80;99.90;;;;;;4956536;28;20016;-70
2022/07/12 05:29:05;;;;;;;2.42;1.10;;;15.70;99.90;;;;;;4957715;29;20027;-71
2022/07/12 05:31:33;;;;;;;3.05;1.00;;;15.60;99.90;;;;;;4957754;29;20024;-69
2022/07/12 05:34:00;;;;;;;3.03;1.15;;;15.50;99.90;;;;;;4957636;29;20030;-69
2022/07/12 05:36:28;;;;;;;4.10;1.20;;;15.50;99.90;;;;;;4957729;29;20099;-69
2022/07/12 05:38:56;;;;;;;1.40;0.65;;;15.40;99.90;;;;;;4957605;29;20027;-69
2022/07/12 05:41:23;;;;;;;1.30;0.80;;;15.30;99.90;;;;;;4940189;29;20031;-69
2022/07/12 05:43:51;;;;;;;2.95;1.40;;;15.20;99.90;;;;;;4957515;29;20110;-69
2022/07/12 05:46:18;;;;;;;2.22;1.02;;;15.10;99.90;;;;;;4957461;29;20030;-69
2022/07/12 05:48:45;;;;;;;3.38;1.05;;;15.00;99.90;;;;;;4940158;29;20031;-68
2022/07/12 05:53:58;;;;;;;2.35;1.00;;;14.90;99.90;;;;;;4957424;29;20111;-68
2022/07/12 05:56:26;;;;;;;2.08;0.80;;;14.90;99.90;;;;;;4939878;29;20027;-68
2022/07/12 05:58:53;;;;;;;1.80;0.93;;;14.80;99.90;;;;;;4957115;29;20025;-68
2022/07/12 06:01:20;;;;;;;1.27;0.80;;;14.70;99.90;;;;;;4957294;29;20029;-69
2022/07/12 06:03:48;;;;;;;4.63;1.50;;;14.60;99.90;;;;;;4939907;29;20037;-68
2022/07/12 06:06:15;;;;;;;1.67;0.77;;;14.60;99.90;;;;;;4957038;29;20090;-69
2022/07/12 06:08:42;;;;;;;2.90;0.85;;;14.50;99.90;;;;;;4939767;29;20027;-71
2022/07/12 06:11:10;;;;;;;1.90;1.20;;;14.40;99.90;;;;;;4957008;29;20019;-69
2022/07/12 06:13:38;;;;;;;3.42;0.90;;;14.30;99.90;;;;;;4939777;29;20110;-69
2022/07/12 06:16:06;;;;;;;2.78;0.88;;;14.30;99.90;;;;;;4956901;29;20023;-70
2022/07/12 06:18:36;;;;;;;3.08;1.10;;;14.20;99.90;;;;;;4957028;29;20372;-69
2022/07/12 06:21:04;;;;;;;1.67;1.08;;;14.20;99.90;;;;;;4956899;29;20519;-69
2022/07/12 06:23:31;;;;;;;3.95;1.63;;;14.10;99.90;;;;;;4956851;29;20110;-69
2022/07/12 06:25:59;;;;;;;2.95;1.40;;;14.20;99.90;;;;;;4956861;29;20030;-69
2022/07/12 06:28:26;;;;;;;3.35;1.60;;;14.00;99.90;;;;;;4956741;29;20035;-69
2022/07/12 06:30:54;;;;;;;2.42;1.10;;;13.90;99.90;;;;;;4939300;29;20042;-69
2022/07/12 06:33:21;;;;;;;2.75;1.45;;;13.80;99.90;;;;;;4939249;29;20027;-70
2022/07/12 06:35:49;;;;;;;1.48;1.10;;;13.60;99.90;;;;;;4956678;29;20015;-70
2022/07/12 06:38:17;;;;;;;2.60;1.10;;;13.40;99.90;;;;;;4955832;28;20019;-70
2022/07/12 06:40:44;;;;;;;2.45;0.90;;;13.30;99.90;;;;;;4956586;29;20043;-70
2022/07/12 06:43:12;;;;;;;2.08;1.15;;;13.20;99.90;;;;;;4956541;29;20027;-70
2022/07/12 06:45:40;;;;;;;2.35;1.38;;;13.10;99.90;;;;;;4939055;29;20030;-70
2022/07/12 06:48:08;;;;;;;1.63;0.90;;;13.10;99.90;;;;;;4939916;29;20047;-70
2022/07/12 06:50:35;;;;;;;2.42;1.20;;;13.00;99.90;;;;;;4938949;29;20392;-69
2022/07/12 06:53:04;;;;;;;3.05;1.20;;;13.00;99.90;;;;;;4956359;29;20029;-70
2022/07/12 06:55:31;;;;;;;2.55;1.20;;;12.90;99.90;;;;;;4956432;29;20024;-69
2022/07/12 06:57:59;;;;;;;2.50;1.30;;;12.80;99.90;;;;;;4956170;29;20051;-69
2022/07/12 07:00:26;;;;;;;3.15;1.20;;;12.70;99.90;;;;;;4956066;29;20038;-69
2022/07/12 07:02:53;;;;;;;3.28;1.27;;;12.70;99.90;;;;;;4938860;29;20035;-69
2022/07/12 07:05:21;;;;;;;3.10;1.40;;;12.70;99.90;;;;;;4938470;29;20126;-69
2022/07/12 07:07:48;;;;;;;2.80;1.75;;;12.60;99.90;;;;;;4956085;29;20035;-69
2022/07/12 07:10:16;;;;;;;4.03;1.60;;;12.60;99.90;;;;;;4955839;29;20039;-69
2022/07/12 07:12:43;;;;;;;2.88;1.63;;;12.60;99.90;;;;;;4938625;29;20086;-69
2022/07/12 07:15:13;;;;;;;3.38;1.50;;;12.60;99.90;;;;;;4955831;29;20422;-69
2022/07/12 07:17:42;;;;;;;3.33;1.75;;;12.50;99.90;;;;;;4955961;29;20015;-69
2022/07/12 07:20:10;;;;;;;3.08;1.60;;;12.40;99.90;;;;;;4955607;29;20055;-69
2022/07/12 07:22:38;;;;;;;4.05;1.73;;;12.30;99.90;;;;;;4955867;29;20102;-69
2022/07/12 07:25:06;;;;;;;3.28;2.00;;;12.30;99.90;;;;;;4955651;29;20023;-69
2022/07/12 07:27:34;;;;;;;4.63;2.30;;;12.20;99.90;;;;;;4938489;29;20034;-69
2022/07/12 07:32:46;;;;;;;2.72;1.92;;;12.10;99.90;;;;;;4955604;29;20022;-69
2022/07/12 07:35:14;;;;;;;3.50;2.25;;;11.90;99.90;;;;;;4955455;29;20034;-69
2022/07/12 07:37:41;;;;;;;4.30;2.25;;;11.90;99.90;;;;;;4938111;29;20027;-69
2022/07/12 07:40:09;;;;;;;4.47;2.42;;;11.80;99.90;;;;;;4955486;29;20019;-69
2022/07/12 07:42:37;;;;;;;6.40;2.50;;;11.80;99.90;;;;;;4955460;29;20027;-69
2022/07/12 07:45:06;;;;;;;4.65;2.47;;;11.70;99.90;;;;;;4938162;29;20038;-70
2022/07/12 07:47:44;;;;;;;4.35;2.63;;;11.70;99.90;;;;;;4938200;29;20034;-69
2022/07/12 07:50:11;;;;;;;5.35;2.30;;;11.60;99.90;;;;;;4955422;28;20449;-69
2022/07/12 07:52:39;;;;;;;4.60;2.67;;;11.60;99.90;;;;;;4955300;29;20015;-70
2022/07/12 07:55:06;;;;;;;3.50;2.28;;;11.60;99.90;;;;;;4938012;29;20078;-70
2022/07/12 07:57:34;;;;;;;5.18;2.60;;;11.50;99.90;;;;;;4937996;29;20027;-70
2022/07/12 08:00:01;;;;;;;4.55;2.42;;;11.50;99.90;;;;;;4955375;29;20123;-71
2022/07/12 08:02:29;;;;;;;3.67;2.30;;;11.40;99.90;;;;;;4955164;29;20023;-69
2022/07/12 08:04:56;;;;;;;5.47;2.65;;;11.40;99.90;;;;;;4954938;29;20031;-70
2022/07/12 08:07:23;;;;;;;5.18;2.90;;;11.40;99.90;;;;;;4937815;29;20035;-70
2022/07/12 08:09:51;;;;;;;4.75;2.70;;;11.30;99.90;;;;;;4955004;29;20065;-68
2022/07/12 08:12:19;;;;;;;6.43;2.95;;;11.30;99.90;;;;;;4955337;29;20473;-69
2022/07/12 08:14:46;;;;;;;3.92;2.20;;;11.30;99.90;;;;;;4955064;29;20020;-69
2022/07/12 08:17:13;;;;;;;4.15;2.30;;;11.20;99.90;;;;;;4937673;29;20403;-70
2022/07/12 08:19:41;;;;;;;3.13;2.03;;;11.20;99.90;;;;;;4955237;29;20029;-69
2022/07/12 08:22:09;;;;;;;5.57;2.92;;;11.20;99.90;;;;;;4955207;29;20023;-69
2022/07/12 08:24:37;;;;;;;5.30;2.75;;;11.20;99.90;;;;;;4954973;29;20023;-69
2022/07/12 08:27:05;;;;;;;4.70;3.03;;;11.30;99.90;;;;;;4937624;29;20027;-70
2022/07/12 08:29:32;;;;;;;5.20;3.00;;;11.20;99.90;;;;;;4954795;29;20030;-70
2022/07/12 08:31:59;;;;;;;5.15;3.75;;;11.20;99.90;;;;;;4954849;29;20103;-69
2022/07/12 08:34:27;;;;;;;6.15;3.67;;;11.20;99.90;;;;;;4954835;29;20067;-69
2022/07/12 08:36:54;;;;;;;7.22;4.25;;;11.30;99.90;;;;;;4954815;29;20058;-69
2022/07/12 08:39:21;;;;;;;7.97;4.22;;;11.30;99.90;;;;;;4954835;29;20019;-69
2022/07/12 08:41:49;;;;;;;7.90;5.45;;;11.40;99.90;;;;;;4954895;29;20431;-68
2022/07/12 08:44:16;;;;;;;7.72;5.07;;;11.50;99.90;;;;;;4954860;29;20023;-68
2022/07/12 08:46:44;;;;;;;7.55;5.40;;;11.50;99.90;;;;;;4954732;29;20396;-68
2022/07/12 08:49:11;;;;;;;9.95;6.22;;;11.50;99.90;;;;;;4954573;29;20369;-68
2022/07/12 08:51:39;;;;;;;10.23;6.30;;;11.50;99.90;;;;;;4954492;29;20139;-68
2022/07/12 08:54:15;;;;;;;9.25;6.03;;;11.50;99.90;;;;;;4954635;29;20059;-69
2022/07/12 08:56:44;;;;;;;7.55;5.68;;;11.60;99.90;;;;;;4954595;29;20023;-68
2022/07/12 08:59:21;;;;;;;9.40;7.72;;;11.60;99.90;;;;;;4937256;29;20042;-68
2022/07/12 09:01:50;;;;;;;11.35;7.80;;;11.50;99.90;;;;;;4957388;28;20015;-70
2022/07/12 09:04:27;;;;;;;11.23;7.10;;;11.40;99.90;;;;;;4958365;29;20019;-70
2022/07/12 09:06:54;;;;;;;9.25;7.18;;;11.40;99.90;;;;;;4958256;29;20051;-70
2022/07/12 09:09:35;;;;;;;7.95;5.47;;;11.30;99.90;;;;;;4940935;29;20023;-70
2022/07/12 09:12:03;;;;;;;10.50;6.22;;;11.20;99.90;;;;;;4958316;29;20015;-70
2022/07/12 09:14:31;;;;;;;8.90;6.25;;;11.10;99.90;;;;;;4940851;29;20031;-70
2022/07/12 09:17:09;;;;;;;8.18;6.20;;;11.00;99.90;;;;;;4958240;29;20023;-70
2022/07/12 09:19:40;;;;;;;8.18;5.78;;;10.90;99.90;;;;;;4958200;29;20392;-70
2022/07/12 09:22:19;;;;;;;10.18;6.22;;;10.90;99.90;;;;;;4957955;29;20022;-70
2022/07/12 09:24:46;;;;;;;8.30;5.65;;;10.80;99.90;;;;;;4940460;29;20039;-70
2022/07/12 09:27:13;;;;;;;8.48;6.40;;;10.80;99.90;;;;;;4957986;29;20547;-70
2022/07/12 09:29:48;;;;;;;8.18;6.25;;;10.70;99.90;;;;;;4940350;29;20020;-70
2022/07/12 09:37:47;;;;;;;16.92;12.43;;;10.60;99.90;;;;;;4958116;29;20059;-69
2022/07/12 09:40:15;;;;;;;12.07;10.77;;;10.60;99.90;;;;;;4940425;29;20031;-69
2022/07/12 09:42:43;;;;;;;12.65;10.93;;;10.50;99.90;;;;;;4957806;29;20027;-69
2022/07/12 09:45:11;;;;;;;14.27;11.73;;;10.50;99.90;;;;;;4958302;29;20093;-69
2022/07/12 09:47:39;;;;;;;13.70;11.70;;;10.40;99.90;;;;;;4956841;29;20035;-68
2022/07/12 09:50:10;;;;;;;13.88;11.10;;;10.40;99.90;;;;;;4940064;29;20027;-69
2022/07/12 09:52:45;;;;;;;12.27;10.85;;;10.30;99.90;;;;;;4940126;29;20031;-69
2022/07/12 09:55:17;;;;;;;13.00;10.25;;;10.40;99.90;;;;;;4941417;29;20058;-69
2022/07/12 09:57:46;;;;;;;11.80;8.95;;;10.40;99.90;;;;;;4957783;29;20038;-69
2022/07/12 10:00:14;;;;;;;13.32;9.82;;;10.50;99.90;;;;;;4957367;29;20027;-70
2022/07/12 10:02:42;;;;;;;12.73;10.32;;;10.40;99.90;;;;;;4957349;29;20038;-69
2022/07/12 10:05:11;;;;;;;12.90;9.52;;;10.50;99.90;;;;;;4957154;29;20395;-70
2022/07/12 10:07:39;;;;;;;11.90;9.55;;;10.50;99.90;;;;;;4957330;29;20051;-69
2022/07/12 10:10:07;;;;;;;14.80;10.27;;;10.50;99.90;;;;;;4957167;29;20027;-69
2022/07/12 10:12:35;;;;;;;11.13;8.95;;;10.60;99.90;;;;;;4956115;28;20041;-70
2022/07/12 10:15:09;;;;;;;11.32;8.90;;;10.60;99.90;;;;;;4957146;29;20144;-70
2022/07/12 10:17:37;;;;;;;12.27;8.65;;;10.60;99.90;;;;;;4939929;29;20027;-69
2022/07/12 10:20:22;;;;;;;12.07;8.93;;;10.50;99.90;;;;;;4957281;29;20030;-70
2022/07/12 10:22:52;;;;;;;10.48;8.48;;;10.50;99.90;;;;;;4957011;29;20070;-70
2022/07/12 10:25:35;;;;;;;9.25;7.25;;;10.40;99.90;;;;;;4939596;29;20122;-69
2022/07/12 10:28:03;;;;;;;11.77;8.02;;;10.40;99.90;;;;;;4956974;29;20119;-70
2022/07/12 10:30:41;;;;;;;10.43;8.25;;;10.30;99.90;;;;;;4939590;29;20027;-70
2022/07/12 10:33:17;;;;;;;11.40;8.10;;;10.30;99.90;;;;;;4956817;29;20074;-69
2022/07/12 10:36:05;;;;;;;12.13;8.25;;;10.40;99.90;;;;;;4939495;29;20030;-69
2022/07/12 10:38:34;;;;;;;11.02;7.53;;;10.40;99.90;;;;;;4939357;29;20030;-69
2022/07/12 10:41:24;;;;;;;10.63;7.82;;;10.40;99.90;;;;;;4956743;29;20472;-69
2022/07/12 10:44:31;;;;;;;9.73;8.02;;;10.40;99.90;;;;;;4932572;29;20399;-69
2022/07/12 10:47:03;;;;;;;9.32;7.68;;;10.40;99.90;;;;;;4938985;29;20033;-69
2022/07/12 10:49:32;;;;;;;12.43;7.88;;;10.40;99.90;;;;;;4956508;29;20055;-70
2022/07/12 10:52:13;;;;;;;8.55;7.15;;;10.40;99.90;;;;;;4956548;29;20026;-69
2022/07/12 10:54:40;;;;;;;8.55;7.07;;;10.40;99.90;;;;;;4956493;29;20019;-69
2022/07/12 10:57:07;;;;;;;9.48;7.70;;;10.30;99.90;;;;;;4956332;29;20027;-70
2022/07/12 10:59:39;;;;;;;9.20;7.55;;;10.40;99.90;;;;;;4956433;29;20015;-71
2022/07/12 11:02:06;;;;;;;9.98;7.93;;;10.50;99.90;;;;;;4956194;29;20106;-70
2022/07/12 11:04:34;;;;;;;10.43;8.57;;;10.50;99.90;;;;;;4956037;29;20047;-70
2022/07/12 11:07:05;;;;;;;9.50;7.38;;;10.50;99.90;;;;;;4956116;29;20047;-70
2022/07/12 11:09:31;;;;;;;;;;;10.50;99.90;;;;;;4956458;29;20027;-70
2022/07/12 11:11:58;;;;;;;10.02;7.00;;;10.50;99.90;;;;;;4956019;29;19907;-71
2022/07/12 11:14:32;;;;;;;8.55;6.78;;;10.40;99.90;;;;;;4955974;29;20038;-71
2022/07/12 11:16:59;;;;;;;10.55;7.40;;;10.50;99.90;;;;;;4955919;29;20019;-71
2022/07/12 11:19:31;;;;;;;10.80;7.10;;;10.50;99.90;;;;;;4938666;29;20396;-70
2022/07/12 11:21:59;;;;;;;10.95;7.00;;;10.60;99.90;;;;;;4955881;29;20032;-70
2022/07/12 11:24:31;;;;;;;9.02;6.95;;;10.50;99.90;;;;;;4955427;28;20034;-70
2022/07/12 11:26:59;;;;;;;8.38;5.75;;;10.60;99.90;;;;;;4955751;29;20057;-70
2022/07/12 11:29:27;;;;;;;9.48;5.90;;;10.50;99.90;;;;;;4955827;29;20368;-70
2022/07/12 11:32:07;;;;;;;7.20;6.10;;;10.60;99.90;;;;;;4955676;29;20050;-70
2022/07/12 11:34:35;;;;;;;7.97;4.65;;;10.50;99.90;;;;;;4955623;29;20059;-70
2022/07/12 11:37:03;;;;;;;9.02;5.65;;;10.60;99.90;;;;;;4938245;29;20034;-70
2022/07/12 11:39:40;;;;;;;7.30;5.32;;;10.60;99.90;;;;;;4938181;29;20030;-70
2022/07/12 11:42:12;;;;;;;5.78;5.00;;;10.60;99.90;;;;;;4938216;29;20023;-70
2022/07/12 11:44:55;;;;;;;8.20;4.97;;;10.60;99.90;;;;;;4938283;29;20024;-70
2022/07/12 11:47:23;;;;;;;6.72;5.28;;;10.60;99.90;;;;;;4955476;29;20152;-70
2022/07/12 11:49:52;;;;;;;8.77;5.07;;;10.60;99.90;;;;;;4955292;29;20027;-70
2022/07/12 11:52:21;;;;;;;5.40;3.97;;;10.50;99.90;;;;;;4937988;29;20388;-70
2022/07/12 11:54:51;;;;;;;6.03;3.67;;;10.50;99.90;;;;;;4955268;29;20020;-71
2022/07/12 11:57:23;;;;;;;6.88;4.20;;;10.60;99.90;;;;;;4955318;29;20027;-71
2022/07/12 11:59:50;;;;;;;7.78;4.60;;;10.60;99.90;;;;;;4955330;29;20032;-70
2022/07/12 12:02:19;;;;;;;6.15;3.53;;;10.70;99.90;;;;;;4937927;29;20067;-70
2022/07/12 12:04:55;;;;;;;4.95;3.55;;;10.80;99.90;;;;;;4954108;29;20107;-70
2022/07/12 12:07:23;;;;;;;5.45;3.83;;;10.80;99.90;;;;;;4955245;29;20046;-70
2022/07/12 12:10:15;;;;;;;4.72;3.30;;;10.80;99.90;;;;;;4955140;29;20028;-70
2022/07/12 12:12:54;;;;;;;5.90;3.33;;;10.90;99.90;;;;;;4937874;29;20027;-72
2022/07/12 12:15:31;;;;;;;4.85;3.75;;;11.00;99.90;;;;;;4955134;29;20597;-70
2022/07/12 12:18:02;;;;;;;4.30;3.40;;;11.00;99.90;;;;;;4937782;29;20023;-71
2022/07/12 12:20:28;;;;;;;;;;;11.00;99.90;;;;;;4955516;29;20070;-71
2022/07/12 12:23:00;;;;;;;5.00;2.72;;;11.10;99.90;;;;;;4937736;29;19907;-72
2022/07/12 12:25:29;;;;;;;4.40;2.80;;;11.20;99.90;;;;;;4937720;29;20396;-71
2022/07/12 12:28:03;;;;;;;4.82;2.88;;;11.20;99.90;;;;;;4937610;29;20027;-71
2022/07/12 12:30:33;;;;;;;4.38;3.05;;;11.20;99.90;;;;;;4954903;29;20027;-71
2022/07/12 12:33:04;;;;;;;3.78;2.78;;;11.10;99.90;;;;;;4955163;29;20047;-71
2022/07/12 12:35:33;;;;;;;4.75;3.22;;;11.10;99.90;;;;;;4954186;28;20019;-71
2022/07/12 12:38:15;;;;;;;4.55;3.10;;;11.20;99.90;;;;;;4954846;29;20023;-71
2022/07/12 12:40:51;;;;;;;4.25;2.75;;;11.10;99.90;;;;;;4954853;29;20031;-71
2022/07/12 12:43:22;;;;;;;4.57;3.35;;;11.10;99.90;;;;;;4937462;29;20097;-71
2022/07/12 12:45:50;;;;;;;6.07;3.35;;;11.10;99.90;;;;;;4937395;29;20028;-70
2022/07/12 12:48:26;;;;;;;4.85;3.00;;;11.10;99.90;;;;;;4937202;29;20035;-70
2022/07/12 12:51:14;;;;;;;3.97;3.00;;;11.10;99.90;;;;;;4937354;29;20038;-70
2022/07/12 12:53:43;;;;;;;4.57;3.13;;;11.00;99.90;;;;;;4954412;29;20476;-70
2022/07/12 12:56:14;;;;;;;5.88;2.92;;;11.00;99.90;;;;;;4954647;29;20063;-70
2022/07/12 12:58:42;;;;;;;5.55;2.80;;;11.00;99.90;;;;;;4954520;29;20441;-70
2022/07/12 13:01:10;;;;;;;3.95;2.47;;;11.00;99.90;;;;;;4954430;29;20027;-70
2022/07/12 13:03:37;;;;;;;4.90;2.67;;;11.00;99.90;;;;;;4954803;29;20102;-69
2022/07/12 13:06:05;;;;;;;4.07;2.90;;;10.90;99.90;;;;;;4954236;29;20090;-69